Time;durP1;ratioP1;P1;durP2;ratioP2;P2;SDS_P1;SDS_P2;PMS_P1;PMS_P2;Temp;Humidity;BMP_temperature;BMP_pressure;BME280_temperature;BME280_humidity;BME280_pressure;Samples;Min_cycle;Max_cycle;Signal;HPM_P1;HPM_P2
2023/01/05 00:00:46;;;;;;;13.90;4.17;;;;;;;;;;5011448;28;20304;-60
2023/01/05 00:03:12;;;;;;;12.13;3.40;;;;;;;;;;5011328;28;20604;-60
2023/01/05 00:05:38;;;;;;;17.23;3.97;;;;;;;;;;5011689;28;20202;-60
2023/01/05 00:08:04;;;;;;;13.23;3.97;;;;;;;;;;5011126;28;20709;-60
2023/01/05 00:24:14;;;;;;;10.17;3.50;;;;;;;;;;5014977;28;20212;-63
2023/01/05 00:26:40;;;;;;;13.37;3.73;;;;;;;;;;5015107;28;20660;-62
2023/01/05 00:29:06;;;;;;;15.27;2.97;;;;;;;;;;5014912;28;20587;-61
2023/01/05 00:31:33;;;;;;;9.63;3.43;;;;;;;;;;5014635;28;20212;-61
2023/01/05 00:33:59;;;;;;;12.87;3.73;;;;;;;;;;5014945;28;20198;-61
2023/01/05 00:36:25;;;;;;;13.33;3.33;;;;;;;;;;5014641;28;20539;-61
2023/01/05 00:38:52;;;;;;;9.87;3.20;;;;;;;;;;5015025;28;20198;-61
2023/01/05 00:41:18;;;;;;;13.57;3.37;;;;;;;;;;5014452;28;20739;-61
2023/01/05 00:43:44;;;;;;;16.90;5.17;;;;;;;;;;5014509;28;20255;-61
2023/01/05 00:46:10;;;;;;;14.00;3.30;;;;;;;;;;5014623;28;20691;-60
2023/01/05 00:48:37;;;;;;;11.03;3.23;;;;;;;;;;5014627;28;20233;-61
2023/01/05 00:51:03;;;;;;;10.73;3.90;;;;;;;;;;5012814;28;20205;-59
2023/01/05 00:53:29;;;;;;;11.20;3.60;;;;;;;;;;5013073;28;20247;-60
2023/01/05 00:55:56;;;;;;;10.10;2.90;;;;;;;;;;5014612;28;20201;-60
2023/01/05 00:58:22;;;;;;;11.33;3.10;;;;;;;;;;5014654;28;20525;-60
2023/01/05 01:00:48;;;;;;;15.20;4.50;;;;;;;;;;5014474;28;20252;-62
2023/01/05 01:03:14;;;;;;;13.90;3.27;;;;;;;;;;5014414;28;20567;-59
2023/01/05 01:05:41;;;;;;;11.97;3.60;;;;;;;;;;5014376;28;20293;-60
2023/01/05 01:08:07;;;;;;;9.80;3.27;;;;;;;;;;5014341;28;20237;-60
2023/01/05 01:10:33;;;;;;;12.47;3.50;;;;;;;;;;5014170;28;20201;-60
2023/01/05 01:12:59;;;;;;;14.23;3.53;;;;;;;;;;5014007;28;20264;-60
2023/01/05 01:15:25;;;;;;;17.43;4.03;;;;;;;;;;5013989;28;20198;-59
2023/01/05 01:17:51;;;;;;;15.33;3.40;;;;;;;;;;5014121;28;20214;-58
2023/01/05 01:20:17;;;;;;;13.33;3.53;;;;;;;;;;5013698;28;20202;-58
2023/01/05 01:22:45;;;;;;;14.50;3.43;;;;;;;;;;5014273;28;20244;-58
2023/01/05 01:25:11;;;;;;;18.67;3.93;;;;;;;;;;5013697;28;20236;-58
2023/01/05 01:27:37;;;;;;;15.50;4.33;;;;;;;;;;5013807;28;20260;-59
2023/01/05 01:30:04;;;;;;;12.60;3.50;;;;;;;;;;5013687;28;20292;-61
2023/01/05 01:32:30;;;;;;;9.87;3.50;;;;;;;;;;5012919;28;20465;-58
2023/01/05 01:34:56;;;;;;;10.20;3.20;;;;;;;;;;5013346;28;20702;-57
2023/01/05 01:37:22;;;;;;;13.87;3.67;;;;;;;;;;5013727;28;20566;-59
2023/01/05 01:39:49;;;;;;;12.00;2.80;;;;;;;;;;5013553;28;20240;-63
2023/01/05 01:42:15;;;;;;;7.40;2.87;;;;;;;;;;5013771;28;20206;-62
2023/01/05 01:44:47;;;;;;;10.70;3.23;;;;;;;;;;5013112;28;20194;-62
2023/01/05 01:47:19;;;;;;;8.30;2.70;;;;;;;;;;5013357;28;20284;-62
2023/01/05 01:49:45;;;;;;;13.27;3.17;;;;;;;;;;5013251;28;20201;-62
2023/01/05 01:52:11;;;;;;;10.40;3.50;;;;;;;;;;5013449;28;20304;-61
2023/01/05 01:54:38;;;;;;;10.27;2.90;;;;;;;;;;5013059;28;20602;-62
2023/01/05 01:57:05;;;;;;;10.63;3.40;;;;;;;;;;5013280;28;20221;-62
2023/01/05 01:59:31;;;;;;;11.73;3.23;;;;;;;;;;5013101;28;20201;-61
2023/01/05 02:01:59;;;;;;;7.63;3.03;;;;;;;;;;5012928;28;20201;-63
2023/01/05 02:04:26;;;;;;;8.60;2.57;;;;;;;;;;5013101;28;20279;-62
2023/01/05 02:06:53;;;;;;;10.50;3.37;;;;;;;;;;5013123;28;20208;-63
2023/01/05 02:09:19;;;;;;;9.80;2.93;;;;;;;;;;5012896;28;20201;-62
2023/01/05 02:11:51;;;;;;;8.40;2.50;;;;;;;;;;5013098;28;20190;-63
2023/01/05 02:14:26;;;;;;;10.67;2.83;;;;;;;;;;5012950;28;20205;-63
2023/01/05 02:16:59;;;;;;;8.10;2.70;;;;;;;;;;5013249;28;20205;-61
2023/01/05 02:19:55;;;;;;;7.93;2.50;;;;;;;;;;5012920;28;20206;-65
2023/01/05 02:22:29;;;;;;;10.17;2.77;;;;;;;;;;4971331;28;20203;-62
2023/01/05 02:25:03;;;;;;;7.07;2.63;;;;;;;;;;5005063;28;20684;-62
2023/01/05 02:27:36;;;;;;;7.73;2.80;;;;;;;;;;5012545;28;20253;-61
2023/01/05 02:30:33;;;;;;;8.53;2.47;;;;;;;;;;5012457;28;20193;-61
2023/01/05 02:33:06;;;;;;;7.23;2.63;;;;;;;;;;5012949;28;20271;-62
2023/01/05 02:35:34;;;;;;;8.60;2.73;;;;;;;;;;5012568;28;20643;-62
2023/01/05 02:38:04;;;;;;;8.10;2.50;;;;;;;;;;5012608;28;20198;-61
2023/01/05 02:40:33;;;;;;;7.67;2.63;;;;;;;;;;5012298;28;20269;-61
2023/01/05 02:43:01;;;;;;;9.23;2.33;;;;;;;;;;5012437;28;20206;-62
2023/01/05 02:45:27;;;;;;;9.33;2.70;;;;;;;;;;5011874;28;20209;-61
2023/01/05 02:47:53;;;;;;;8.43;3.07;;;;;;;;;;5012140;28;20233;-61
2023/01/05 02:50:23;;;;;;;7.20;3.00;;;;;;;;;;5012298;28;20196;-61
2023/01/05 02:52:55;;;;;;;11.27;3.07;;;;;;;;;;5012383;28;20301;-61
2023/01/05 02:55:24;;;;;;;10.07;3.10;;;;;;;;;;5012308;28;20208;-62
2023/01/05 02:57:55;;;;;;;13.07;3.03;;;;;;;;;;5012156;28;20189;-61
2023/01/05 03:00:23;;;;;;;12.30;3.50;;;;;;;;;;5012317;28;20276;-61
2023/01/05 03:02:51;;;;;;;13.70;3.67;;;;;;;;;;5012088;28;20205;-61
2023/01/05 03:05:20;;;;;;;12.07;3.20;;;;;;;;;;5012012;28;20236;-61
2023/01/05 03:07:50;;;;;;;13.47;4.03;;;;;;;;;;5012011;28;20308;-64
2023/01/05 03:15:50;;;;;;;13.63;3.80;;;;;;;;;;5012103;28;20324;-62
2023/01/05 03:18:18;;;;;;;12.03;3.80;;;;;;;;;;5011825;28;20197;-62
2023/01/05 03:20:47;;;;;;;9.87;3.17;;;;;;;;;;5011898;28;20190;-62
2023/01/05 03:37:08;;;;;;;12.80;3.43;;;;;;;;;;5011970;28;20192;-63
2023/01/05 03:39:37;;;;;;;12.90;3.93;;;;;;;;;;5011690;28;20232;-62
2023/01/05 03:42:04;;;;;;;9.70;3.30;;;;;;;;;;5011744;28;20197;-62
2023/01/05 03:44:30;;;;;;;12.50;3.60;;;;;;;;;;5011448;28;20216;-62
2023/01/05 03:46:56;;;;;;;10.37;3.23;;;;;;;;;;5011617;28;20708;-61
2023/01/05 03:49:22;;;;;;;10.23;3.50;;;;;;;;;;5011357;28;20295;-62
2023/01/05 03:51:48;;;;;;;13.03;3.50;;;;;;;;;;5011658;28;20296;-62
2023/01/05 03:54:13;;;;;;;14.63;3.13;;;;;;;;;;5011428;28;20193;-63
2023/01/05 03:56:41;;;;;;;12.03;3.30;;;;;;;;;;5013117;28;20668;-62
2023/01/05 03:59:07;;;;;;;13.90;3.83;;;;;;;;;;5015631;28;20204;-60
2023/01/05 04:01:33;;;;;;;11.27;3.27;;;;;;;;;;5015243;28;20213;-61
2023/01/05 04:03:59;;;;;;;15.93;4.13;;;;;;;;;;5015535;28;20197;-61
2023/01/05 04:06:25;;;;;;;12.97;4.30;;;;;;;;;;5015402;28;20679;-61
2023/01/05 04:08:51;;;;;;;15.60;4.67;;;;;;;;;;5015279;28;20232;-61
2023/01/05 04:11:18;;;;;;;13.23;3.83;;;;;;;;;;5015207;28;20204;-61
2023/01/05 04:13:45;;;;;;;14.93;3.40;;;;;;;;;;5015185;28;20738;-61
2023/01/05 04:16:12;;;;;;;11.43;3.33;;;;;;;;;;5014927;28;20285;-61
2023/01/05 04:18:38;;;;;;;11.90;3.43;;;;;;;;;;5015040;28;20236;-61
2023/01/05 04:21:04;;;;;;;12.17;3.73;;;;;;;;;;5015023;28;20233;-61
2023/01/05 04:23:30;;;;;;;12.87;4.10;;;;;;;;;;5015103;28;20197;-61
2023/01/05 04:25:56;;;;;;;15.53;3.57;;;;;;;;;;5015012;28;20205;-61
2023/01/05 04:28:22;;;;;;;10.03;3.10;;;;;;;;;;5014774;28;20233;-61
2023/01/05 04:30:50;;;;;;;10.50;3.70;;;;;;;;;;5014856;28;20211;-62
2023/01/05 04:33:16;;;;;;;14.53;3.60;;;;;;;;;;5014552;28;20668;-61
2023/01/05 04:35:42;;;;;;;10.43;3.00;;;;;;;;;;5014926;28;20217;-61
2023/01/05 04:38:08;;;;;;;11.77;3.60;;;;;;;;;;5014742;28;20699;-62
2023/01/05 04:40:34;;;;;;;14.20;3.43;;;;;;;;;;5014506;28;20277;-61
2023/01/05 04:43:00;;;;;;;14.37;3.40;;;;;;;;;;5014869;28;20297;-62
2023/01/05 04:45:26;;;;;;;10.57;3.40;;;;;;;;;;5014500;28;20284;-62
2023/01/05 04:47:54;;;;;;;11.23;3.93;;;;;;;;;;5014752;28;20233;-61
2023/01/05 04:50:20;;;;;;;13.17;3.90;;;;;;;;;;5014439;28;20201;-61
2023/01/05 04:52:46;;;;;;;9.27;3.00;;;;;;;;;;5014587;28;20208;-61
2023/01/05 04:55:12;;;;;;;15.70;3.60;;;;;;;;;;5014367;28;20205;-61
2023/01/05 04:57:38;;;;;;;11.63;3.47;;;;;;;;;;5014182;28;20272;-61
2023/01/05 05:00:04;;;;;;;9.63;3.80;;;;;;;;;;5014428;28;20551;-62
2023/01/05 05:02:30;;;;;;;14.10;3.80;;;;;;;;;;5014165;28;20201;-62
2023/01/05 05:04:58;;;;;;;10.33;3.70;;;;;;;;;;5014254;28;20224;-62
2023/01/05 05:07:24;;;;;;;17.03;3.60;;;;;;;;;;5013892;28;20280;-63
2023/01/05 05:09:50;;;;;;;10.43;3.40;;;;;;;;;;5014329;28;20451;-64
2023/01/05 05:12:19;;;;;;;13.40;3.83;;;;;;;;;;5014200;28;20201;-63
2023/01/05 05:14:45;;;;;;;15.97;4.10;;;;;;;;;;5014225;28;20225;-63
2023/01/05 05:17:11;;;;;;;14.13;3.97;;;;;;;;;;5014228;28;20189;-63
2023/01/05 05:19:37;;;;;;;12.47;3.37;;;;;;;;;;5014014;28;20562;-62
2023/01/05 05:22:04;;;;;;;11.63;3.57;;;;;;;;;;5013923;28;20247;-62
2023/01/05 05:24:30;;;;;;;12.17;3.90;;;;;;;;;;5013739;28;20206;-62
2023/01/05 05:26:56;;;;;;;11.63;3.60;;;;;;;;;;5014013;28;20200;-62
2023/01/05 05:29:22;;;;;;;15.90;4.07;;;;;;;;;;5013582;28;20205;-62
2023/01/05 05:31:48;;;;;;;14.57;3.53;;;;;;;;;;5013793;28;20198;-62
2023/01/05 05:34:14;;;;;;;14.37;3.70;;;;;;;;;;5013451;28;20634;-62
2023/01/05 05:36:40;;;;;;;13.37;4.10;;;;;;;;;;5013744;28;20304;-62
2023/01/05 05:39:08;;;;;;;11.87;3.30;;;;;;;;;;5013720;28;20292;-62
2023/01/05 05:41:34;;;;;;;10.97;2.97;;;;;;;;;;5013283;28;20316;-62
2023/01/05 05:44:01;;;;;;;8.27;2.93;;;;;;;;;;5013588;28;20679;-62
2023/01/05 05:46:27;;;;;;;14.83;4.00;;;;;;;;;;5013393;28;20197;-62
2023/01/05 05:48:53;;;;;;;11.33;3.90;;;;;;;;;;5013381;28;20316;-61
2023/01/05 05:51:19;;;;;;;12.17;3.53;;;;;;;;;;5013301;28;20201;-62
2023/01/05 05:53:45;;;;;;;14.67;3.87;;;;;;;;;;5013279;28;20608;-61
2023/01/05 05:56:12;;;;;;;12.37;3.13;;;;;;;;;;5013404;28;20204;-61
2023/01/05 05:58:38;;;;;;;9.20;3.10;;;;;;;;;;5013190;28;20205;-61
2023/01/05 06:01:04;;;;;;;11.33;3.33;;;;;;;;;;5013010;28;20201;-61
2023/01/05 06:03:30;;;;;;;13.70;3.87;;;;;;;;;;5013095;28;20251;-61
2023/01/05 06:05:56;;;;;;;8.23;2.70;;;;;;;;;;5013108;28;20193;-61
2023/01/05 06:08:22;;;;;;;10.87;3.03;;;;;;;;;;5012905;28;20769;-62
2023/01/05 06:10:49;;;;;;;12.20;3.20;;;;;;;;;;5013020;28;20558;-62
2023/01/05 06:13:16;;;;;;;10.13;3.00;;;;;;;;;;5012875;28;20201;-61
2023/01/05 06:15:42;;;;;;;13.83;3.20;;;;;;;;;;5012805;28;20568;-61
2023/01/05 06:18:08;;;;;;;9.13;2.83;;;;;;;;;;5012927;28;20190;-61
2023/01/05 06:20:35;;;;;;;10.17;2.87;;;;;;;;;;5012024;28;20198;-61
2023/01/05 06:23:01;;;;;;;7.57;2.93;;;;;;;;;;5012900;28;20745;-61
2023/01/05 06:25:27;;;;;;;12.97;2.87;;;;;;;;;;5012470;28;20205;-62
2023/01/05 06:27:53;;;;;;;11.50;3.00;;;;;;;;;;5012755;28;20236;-61
2023/01/05 06:30:20;;;;;;;8.77;2.93;;;;;;;;;;5012322;28;20197;-62
2023/01/05 06:32:46;;;;;;;9.70;2.93;;;;;;;;;;5012414;28;20644;-62
2023/01/05 06:35:12;;;;;;;9.53;3.30;;;;;;;;;;5012490;28;20317;-61
2023/01/05 06:37:38;;;;;;;13.03;3.40;;;;;;;;;;5012360;28;20644;-61
2023/01/05 06:40:05;;;;;;;11.30;3.33;;;;;;;;;;5012578;28;20241;-60
2023/01/05 06:42:32;;;;;;;11.27;3.60;;;;;;;;;;5012157;28;20201;-63
2023/01/05 06:44:58;;;;;;;8.63;2.60;;;;;;;;;;5012513;28;20680;-61
2023/01/05 06:47:25;;;;;;;15.10;4.47;;;;;;;;;;5012164;28;20687;-61
2023/01/05 06:49:51;;;;;;;11.40;3.70;;;;;;;;;;5012091;28;20210;-61
2023/01/05 06:52:17;;;;;;;10.77;4.03;;;;;;;;;;5012172;28;20208;-61
2023/01/05 06:54:43;;;;;;;16.97;4.93;;;;;;;;;;5012087;28;20661;-61
2023/01/05 06:57:10;;;;;;;12.53;4.17;;;;;;;;;;5011953;28;20300;-61
2023/01/05 06:59:36;;;;;;;10.80;3.37;;;;;;;;;;5012285;28;20618;-61
2023/01/05 07:02:02;;;;;;;14.07;3.77;;;;;;;;;;5011899;28;20267;-61
2023/01/05 07:04:29;;;;;;;10.17;3.37;;;;;;;;;;5012264;28;20194;-62
2023/01/05 07:06:55;;;;;;;17.17;4.13;;;;;;;;;;5012056;28;20712;-63
2023/01/05 07:09:21;;;;;;;10.80;3.20;;;;;;;;;;5011732;28;20221;-62
2023/01/05 07:11:47;;;;;;;11.27;4.07;;;;;;;;;;5012153;28;20566;-64
2023/01/05 07:14:14;;;;;;;16.20;4.00;;;;;;;;;;5011703;28;20193;-65
2023/01/05 07:16:40;;;;;;;13.33;3.87;;;;;;;;;;5011921;28;20216;-64
2023/01/05 07:19:06;;;;;;;14.00;3.83;;;;;;;;;;5011757;28;20288;-64
2023/01/05 07:21:33;;;;;;;10.07;3.50;;;;;;;;;;5011621;28;20239;-64
2023/01/05 07:23:59;;;;;;;12.27;3.60;;;;;;;;;;5012080;28;20217;-63
2023/01/05 07:26:25;;;;;;;15.13;4.07;;;;;;;;;;5011581;28;20202;-63
2023/01/05 07:28:51;;;;;;;13.23;3.67;;;;;;;;;;5011774;28;20707;-64
2023/01/05 07:31:17;;;;;;;8.37;2.83;;;;;;;;;;5011507;28;20209;-65
2023/01/05 07:33:43;;;;;;;10.07;3.20;;;;;;;;;;5011552;28;20205;-65
2023/01/05 07:36:09;;;;;;;8.57;3.10;;;;;;;;;;5011668;28;20628;-64
2023/01/05 07:38:37;;;;;;;11.63;3.73;;;;;;;;;;5011389;28;20201;-64
2023/01/05 07:41:03;;;;;;;10.23;2.90;;;;;;;;;;5011278;28;20722;-64
2023/01/05 07:43:29;;;;;;;12.00;3.23;;;;;;;;;;5011705;28;20197;-64
2023/01/05 07:45:58;;;;;;;12.30;3.77;;;;;;;;;;5011421;28;20208;-63
2023/01/05 07:48:24;;;;;;;11.73;3.40;;;;;;;;;;5011270;28;20225;-64
2023/01/05 07:50:50;;;;;;;9.50;2.93;;;;;;;;;;5011553;28;20225;-65
2023/01/05 07:53:16;;;;;;;15.70;3.53;;;;;;;;;;5011487;28;20571;-64
2023/01/05 07:55:44;;;;;;;10.20;3.60;;;;;;;;;;5011588;28;20197;-64
2023/01/05 07:58:10;;;;;;;8.57;2.90;;;;;;;;;;5011457;28;20695;-64
2023/01/05 08:00:35;;;;;;;13.53;3.50;;;;;;;;;;5011255;28;20197;-64
2023/01/05 08:03:01;;;;;;;12.00;3.40;;;;;;;;;;5011270;28;20201;-63
2023/01/05 08:05:32;;;;;;;11.33;3.30;;;;;;;;;;5011123;28;20205;-63
2023/01/05 08:07:58;;;;;;;12.13;3.10;;;;;;;;;;5011302;28;20233;-62
2023/01/05 08:10:27;;;;;;;8.20;2.83;;;;;;;;;;5011448;28;20556;-63
2023/01/05 08:15:39;;;;;;;11.67;3.37;;;;;;;;;;5011339;28;20589;-61
2023/01/05 08:18:05;;;;;;;11.60;2.87;;;;;;;;;;5011637;28;20190;-61
2023/01/05 08:20:31;;;;;;;11.03;3.17;;;;;;;;;;5011575;28;20198;-61
2023/01/05 08:22:57;;;;;;;10.53;3.33;;;;;;;;;;5011536;28;20557;-61
2023/01/05 08:25:24;;;;;;;9.73;3.03;;;;;;;;;;5011184;28;20198;-61
2023/01/05 08:27:50;;;;;;;10.07;3.33;;;;;;;;;;5011416;28;20225;-60
2023/01/05 08:30:17;;;;;;;9.17;3.20;;;;;;;;;;5011300;28;20200;-60
2023/01/05 08:32:43;;;;;;;10.67;2.70;;;;;;;;;;5011212;28;20260;-61
2023/01/05 08:35:09;;;;;;;9.00;2.70;;;;;;;;;;5011116;28;20221;-61
2023/01/05 08:37:35;;;;;;;10.90;2.63;;;;;;;;;;5011003;28;20722;-61
2023/01/05 08:40:01;;;;;;;9.10;2.87;;;;;;;;;;5010958;28;20256;-61
2023/01/05 08:42:27;;;;;;;8.17;2.50;;;;;;;;;;5011951;28;20268;-61
2023/01/05 08:44:53;;;;;;;6.83;2.50;;;;;;;;;;5014553;28;20210;-61
2023/01/05 08:47:20;;;;;;;6.30;2.40;;;;;;;;;;5014368;28;20296;-61
2023/01/05 08:49:48;;;;;;;7.00;2.20;;;;;;;;;;5014408;28;20209;-61
2023/01/05 08:52:14;;;;;;;10.37;3.43;;;;;;;;;;5014220;28;20202;-62
2023/01/05 08:54:40;;;;;;;8.70;2.83;;;;;;;;;;5014401;28;20217;-62
2023/01/05 08:57:06;;;;;;;8.80;3.40;;;;;;;;;;5014461;28;20212;-61
2023/01/05 08:59:32;;;;;;;5.73;2.77;;;;;;;;;;5014047;28;20525;-61
2023/01/05 09:01:58;;;;;;;9.00;3.27;;;;;;;;;;5014577;28;20257;-61
2023/01/05 09:04:26;;;;;;;10.33;3.93;;;;;;;;;;5014158;28;20252;-62
2023/01/05 09:06:52;;;;;;;10.20;3.03;;;;;;;;;;5014404;28;20217;-62
2023/01/05 09:09:18;;;;;;;13.20;3.30;;;;;;;;;;5014184;28;20715;-60
2023/01/05 09:11:44;;;;;;;9.77;2.90;;;;;;;;;;5013903;28;20224;-62
2023/01/05 09:14:13;;;;;;;9.40;3.03;;;;;;;;;;5014100;28;20197;-60
2023/01/05 09:16:39;;;;;;;11.53;3.17;;;;;;;;;;5013680;28;20208;-60
2023/01/05 09:19:05;;;;;;;9.83;3.10;;;;;;;;;;5013953;28;20274;-61
2023/01/05 09:21:32;;;;;;;10.80;3.30;;;;;;;;;;5013816;28;20197;-60
2023/01/05 09:23:58;;;;;;;9.83;3.37;;;;;;;;;;5013847;28;20217;-61
2023/01/05 09:26:24;;;;;;;11.23;3.13;;;;;;;;;;5013832;28;20233;-65
2023/01/05 09:28:50;;;;;;;12.23;2.80;;;;;;;;;;5013629;28;20237;-64
2023/01/05 09:31:18;;;;;;;13.43;3.23;;;;;;;;;;5013751;28;20197;-65
2023/01/05 09:33:44;;;;;;;11.57;3.17;;;;;;;;;;5013640;28;20202;-64
2023/01/05 09:36:10;;;;;;;12.40;3.50;;;;;;;;;;5013542;28;20720;-65
2023/01/05 09:38:38;;;;;;;12.23;3.00;;;;;;;;;;5013562;28;20194;-65
2023/01/05 09:41:05;;;;;;;10.83;3.00;;;;;;;;;;5013610;28;20316;-64
2023/01/05 09:43:35;;;;;;;10.00;2.70;;;;;;;;;;5013543;28;20198;-62
2023/01/05 09:46:01;;;;;;;8.87;3.20;;;;;;;;;;5013543;28;20201;-62
2023/01/05 09:48:38;;;;;;;11.40;2.87;;;;;;;;;;5013282;28;20221;-63
2023/01/05 09:51:04;;;;;;;5.23;2.03;;;;;;;;;;5013668;28;20205;-63
2023/01/05 09:53:30;;;;;;;9.80;2.53;;;;;;;;;;5012568;28;20252;-63
2023/01/05 09:55:58;;;;;;;8.37;2.90;;;;;;;;;;5012783;28;20198;-63
2023/01/05 09:58:27;;;;;;;7.80;2.63;;;;;;;;;;5013303;28;20206;-63
2023/01/05 10:01:00;;;;;;;5.90;2.50;;;;;;;;;;5013178;28;20194;-62
2023/01/05 10:03:26;;;;;;;10.33;2.90;;;;;;;;;;5012982;28;20202;-64
2023/01/05 10:05:52;;;;;;;5.67;2.27;;;;;;;;;;5012782;28;20666;-67
2023/01/05 10:08:24;;;;;;;8.27;2.70;;;;;;;;;;5012818;28;20588;-66
2023/01/05 10:13:38;;;;;;;9.40;2.40;;;;;;;;;;5012638;28;20193;-65
2023/01/05 10:16:05;;;;;;;5.43;2.40;;;;;;;;;;5013066;28;20209;-65
2023/01/05 10:18:33;;;;;;;4.80;1.40;;;;;;;;;;5012891;28;20194;-64
2023/01/05 10:21:04;;;;;;;3.83;1.60;;;;;;;;;;5012695;28;20198;-65
2023/01/05 10:23:37;;;;;;;1.67;1.23;;;;;;;;;;5012480;28;20206;-63
2023/01/05 10:26:04;;;;;;;3.00;1.07;;;;;;;;;;5012571;28;20197;-61
2023/01/05 10:28:33;;;;;;;1.87;1.10;;;;;;;;;;5012522;28;20214;-60
2023/01/05 10:31:01;;;;;;;1.90;1.20;;;;;;;;;;5012615;28;20198;-58
2023/01/05 10:33:34;;;;;;;2.30;1.17;;;;;;;;;;5012274;28;20569;-61
2023/01/05 10:36:01;;;;;;;2.10;1.23;;;;;;;;;;5012358;28;20261;-61
2023/01/05 10:38:36;;;;;;;1.70;0.90;;;;;;;;;;5012423;28;20193;-60
2023/01/05 10:41:05;;;;;;;2.27;1.20;;;;;;;;;;5012190;28;20309;-61
2023/01/05 10:43:45;;;;;;;2.37;1.00;;;;;;;;;;5012223;28;20202;-60
2023/01/05 10:46:14;;;;;;;2.47;1.20;;;;;;;;;;5012303;28;20202;-61
2023/01/05 10:48:40;;;;;;;2.60;1.20;;;;;;;;;;5012005;28;20225;-62
2023/01/05 10:51:07;;;;;;;2.10;1.00;;;;;;;;;;5003184;28;20213;-61
2023/01/05 10:53:35;;;;;;;2.87;1.10;;;;;;;;;;4992555;28;20338;-60
2023/01/05 10:56:03;;;;;;;1.13;0.80;;;;;;;;;;4992550;28;20198;-60
2023/01/05 10:58:30;;;;;;;2.07;1.20;;;;;;;;;;4992461;28;20707;-62
2023/01/05 11:00:56;;;;;;;2.13;1.20;;;;;;;;;;4992400;28;20610;-62
2023/01/05 11:03:27;;;;;;;2.37;1.27;;;;;;;;;;4992260;28;20209;-60
2023/01/05 11:05:53;;;;;;;4.27;1.20;;;;;;;;;;4992294;28;20206;-61
2023/01/05 11:08:21;;;;;;;1.53;1.00;;;;;;;;;;4992639;28;20279;-61
2023/01/05 11:10:51;;;;;;;3.27;1.30;;;;;;;;;;4992635;28;20201;-61
2023/01/05 11:13:18;;;;;;;1.77;1.13;;;;;;;;;;4992452;28;20201;-61
2023/01/05 11:15:47;;;;;;;2.30;1.13;;;;;;;;;;4992554;28;20225;-60
2023/01/05 11:18:22;;;;;;;1.83;1.00;;;;;;;;;;4992446;28;20198;-61
2023/01/05 11:23:47;;;;;;;2.30;1.03;;;;;;;;;;5150669;27;20770;-60
2023/01/05 11:26:26;;;;;;;1.43;1.03;;;;;;;;;;5129946;28;20197;-61
2023/01/05 11:29:00;;;;;;;1.53;1.07;;;;;;;;;;5129893;28;20189;-61
2023/01/05 11:31:27;;;;;;;2.70;1.10;;;;;;;;;;5129668;28;20338;-61
2023/01/05 11:33:56;;;;;;;1.30;0.80;;;;;;;;;;5128218;27;20617;-60
2023/01/05 11:36:22;;;;;;;0.83;0.80;;;;;;;;;;5109318;28;20205;-62
2023/01/05 11:38:53;;;;;;;1.77;1.13;;;;;;;;;;5109190;28;20267;-61
2023/01/05 11:41:21;;;;;;;2.37;0.90;;;;;;;;;;5109264;28;20255;-60
2023/01/05 11:43:47;;;;;;;2.27;1.00;;;;;;;;;;5109096;28;20202;-60
2023/01/05 11:46:14;;;;;;;1.27;0.80;;;;;;;;;;5108872;28;20198;-60
2023/01/05 11:48:44;;;;;;;3.83;1.10;;;;;;;;;;5108938;28;20255;-60
2023/01/05 11:51:30;;;;;;;3.37;1.20;;;;;;;;;;5109072;28;20193;-60
2023/01/05 11:53:57;;;;;;;3.97;1.20;;;;;;;;;;5108691;28;20586;-61
2023/01/05 11:56:24;;;;;;;1.97;1.10;;;;;;;;;;5108659;28;20217;-63
2023/01/05 11:58:51;;;;;;;1.50;1.17;;;;;;;;;;5108854;28;20195;-60
2023/01/05 12:01:31;;;;;;;1.13;0.80;;;;;;;;;;5108579;28;20195;-60
2023/01/05 12:04:03;;;;;;;2.20;1.00;;;;;;;;;;5108810;28;20293;-60
2023/01/05 12:06:45;;;;;;;1.03;0.93;;;;;;;;;;5108765;28;20678;-61
2023/01/05 12:09:15;;;;;;;1.93;0.90;;;;;;;;;;5108469;28;20668;-61
2023/01/05 12:11:46;;;;;;;1.10;1.00;;;;;;;;;;5108482;28;20290;-61
2023/01/05 12:14:20;;;;;;;1.43;1.17;;;;;;;;;;5108613;28;20277;-62
2023/01/05 12:16:48;;;;;;;2.77;1.23;;;;;;;;;;5108392;28;20206;-62
2023/01/05 12:19:35;;;;;;;2.27;1.20;;;;;;;;;;5108510;28;20557;-62
2023/01/05 12:22:10;;;;;;;1.60;1.00;;;;;;;;;;5108466;28;20226;-61
2023/01/05 12:24:47;;;;;;;3.30;1.30;;;;;;;;;;5108365;28;20209;-62
2023/01/05 12:27:18;;;;;;;3.27;1.60;;;;;;;;;;5108399;28;20733;-61
2023/01/05 12:29:53;;;;;;;2.60;1.33;;;;;;;;;;5108194;28;20229;-62
2023/01/05 12:32:35;;;;;;;3.23;1.50;;;;;;;;;;5108203;28;20190;-61
2023/01/05 12:35:10;;;;;;;2.83;1.27;;;;;;;;;;5094651;28;20263;-61
2023/01/05 12:37:39;;;;;;;4.83;1.60;;;;;;;;;;5094465;28;20591;-62
2023/01/05 12:40:16;;;;;;;2.77;1.40;;;;;;;;;;5094248;28;20203;-61
2023/01/05 12:42:47;;;;;;;4.07;1.60;;;;;;;;;;5094196;28;20223;-61
2023/01/05 12:45:28;;;;;;;3.07;1.67;;;;;;;;;;5094288;28;20198;-61
2023/01/05 12:47:58;;;;;;;4.07;1.70;;;;;;;;;;5094147;28;20237;-61
2023/01/05 12:50:30;;;;;;;1.83;1.43;;;;;;;;;;5093915;28;20199;-61
2023/01/05 12:52:59;;;;;;;3.47;1.77;;;;;;;;;;5094038;28;20650;-61
2023/01/05 12:55:28;;;;;;;4.33;1.80;;;;;;;;;;5093984;28;20199;-62
2023/01/05 12:57:58;;;;;;;1.80;1.40;;;;;;;;;;5093982;28;20739;-61
2023/01/05 13:00:25;;;;;;;3.07;1.57;;;;;;;;;;5093805;28;20676;-61
2023/01/05 13:02:55;;;;;;;2.47;1.50;;;;;;;;;;5094063;28;20318;-61
2023/01/05 13:05:23;;;;;;;4.10;1.70;;;;;;;;;;5094053;28;20561;-61
2023/01/05 13:07:52;;;;;;;2.90;1.53;;;;;;;;;;5093730;28;20199;-61
2023/01/05 13:10:20;;;;;;;2.47;1.73;;;;;;;;;;5093793;28;20199;-61
2023/01/05 13:12:48;;;;;;;3.73;1.60;;;;;;;;;;5093796;28;20195;-61
2023/01/05 13:15:15;;;;;;;3.40;1.90;;;;;;;;;;5093778;28;20210;-60
2023/01/05 13:17:43;;;;;;;5.03;2.17;;;;;;;;;;5093539;28;20206;-60
2023/01/05 13:20:16;;;;;;;6.33;1.90;;;;;;;;;;5093707;28;20292;-61
2023/01/05 13:22:43;;;;;;;3.43;2.00;;;;;;;;;;5093360;28;20273;-61
2023/01/05 13:25:14;;;;;;;2.63;1.97;;;;;;;;;;5093478;28;20657;-60
2023/01/05 13:27:40;;;;;;;4.00;2.10;;;;;;;;;;5093429;28;20565;-60
2023/01/05 13:30:11;;;;;;;3.07;1.93;;;;;;;;;;5093603;28;20614;-60
2023/01/05 13:32:45;;;;;;;2.33;1.60;;;;;;;;;;5093312;28;20237;-60
2023/01/05 13:35:22;;;;;;;1.80;1.70;;;;;;;;;;5093333;28;20692;-60
2023/01/05 13:37:56;;;;;;;5.87;1.80;;;;;;;;;;5093242;28;20205;-61
2023/01/05 13:40:55;;;;;;;2.57;1.83;;;;;;;;;;5093117;28;20788;-61
2023/01/05 13:43:32;;;;;;;2.93;1.50;;;;;;;;;;5010945;28;20226;-61
2023/01/05 13:46:13;;;;;;;2.10;1.23;;;;;;;;;;5009966;28;20201;-60
2023/01/05 13:48:49;;;;;;;3.43;1.80;;;;;;;;;;5052988;28;20203;-60
2023/01/05 13:51:26;;;;;;;3.77;1.60;;;;;;;;;;5093006;28;20251;-61
2023/01/05 13:53:54;;;;;;;4.40;1.50;;;;;;;;;;5093004;28;20281;-61
2023/01/05 13:56:22;;;;;;;4.10;1.73;;;;;;;;;;5092955;28;20214;-61
2023/01/05 13:58:51;;;;;;;4.67;1.53;;;;;;;;;;5092734;28;20245;-61
2023/01/05 14:01:18;;;;;;;1.37;1.20;;;;;;;;;;5092978;28;20199;-61
2023/01/05 14:03:50;;;;;;;2.47;1.30;;;;;;;;;;5092749;28;20253;-61
2023/01/05 14:06:18;;;;;;;3.30;1.80;;;;;;;;;;5092757;28;20565;-61
2023/01/05 14:08:48;;;;;;;2.33;1.40;;;;;;;;;;5092584;28;20207;-61
2023/01/05 14:11:15;;;;;;;2.63;1.60;;;;;;;;;;5092727;28;20234;-61
2023/01/05 14:13:42;;;;;;;3.17;1.50;;;;;;;;;;5092576;28;20602;-61
2023/01/05 14:16:27;;;;;;;4.17;1.83;;;;;;;;;;5092602;28;20205;-60
2023/01/05 14:19:01;;;;;;;5.33;2.03;;;;;;;;;;5092566;28;20621;-60
2023/01/05 14:21:42;;;;;;;3.63;1.70;;;;;;;;;;5092395;28;20569;-59
2023/01/05 14:24:23;;;;;;;2.97;1.40;;;;;;;;;;5092628;28;20698;-60
2023/01/05 14:27:03;;;;;;;4.17;1.50;;;;;;;;;;5092281;28;20195;-61
2023/01/05 14:29:48;;;;;;;2.83;1.53;;;;;;;;;;5092317;28;20278;-63
2023/01/05 14:32:19;;;;;;;4.03;1.70;;;;;;;;;;5092217;28;20693;-64
2023/01/05 14:34:47;;;;;;;3.63;1.77;;;;;;;;;;5092105;28;20755;-61
2023/01/05 14:37:20;;;;;;;4.03;1.63;;;;;;;;;;5092404;28;20199;-61
2023/01/05 14:39:46;;;;;;;4.60;1.63;;;;;;;;;;5092216;28;20199;-62
2023/01/05 14:42:27;;;;;;;3.83;1.70;;;;;;;;;;5092036;28;20237;-62
2023/01/05 14:44:57;;;;;;;3.17;1.70;;;;;;;;;;5092003;28;20228;-61
2023/01/05 14:47:33;;;;;;;2.30;1.20;;;;;;;;;;5092028;28;20565;-60
2023/01/05 14:50:04;;;;;;;2.37;1.50;;;;;;;;;;5092138;28;20682;-60
2023/01/05 14:52:48;;;;;;;4.70;1.63;;;;;;;;;;5092020;28;20746;-60
2023/01/05 14:55:18;;;;;;;2.57;1.63;;;;;;;;;;5091960;28;20672;-60
2023/01/05 14:57:49;;;;;;;3.40;1.60;;;;;;;;;;5091432;28;20665;-61
2023/01/05 15:00:16;;;;;;;3.23;2.03;;;;;;;;;;5091795;28;20202;-61
2023/01/05 15:02:45;;;;;;;5.83;1.60;;;;;;;;;;5091546;28;20616;-60
2023/01/05 15:05:15;;;;;;;2.70;1.60;;;;;;;;;;5091796;28;20611;-60
2023/01/05 15:07:44;;;;;;;3.50;1.70;;;;;;;;;;5091742;28;20260;-60
2023/01/05 15:10:17;;;;;;;6.40;2.10;;;;;;;;;;5091811;28;20282;-61
2023/01/05 15:12:49;;;;;;;4.60;2.20;;;;;;;;;;5091737;28;20830;-60
2023/01/05 15:15:25;;;;;;;2.83;1.80;;;;;;;;;;5091765;28;20199;-60
2023/01/05 15:17:59;;;;;;;4.33;1.80;;;;;;;;;;5091407;28;20700;-60
2023/01/05 15:20:34;;;;;;;3.57;1.80;;;;;;;;;;5091619;28;20210;-59
2023/01/05 15:23:10;;;;;;;3.43;1.60;;;;;;;;;;5091343;28;20244;-59
2023/01/05 15:25:41;;;;;;;6.20;1.90;;;;;;;;;;5091603;28;20210;-60